sensor_id;sensor_type;location;lat;lon;timestamp;P1;P2;P0
78316;PMS7003;67572;50.930;18.276;2023-08-12T00:00:58;10.00;10.00;10.00
78316;PMS7003;67572;50.930;18.276;2023-08-12T00:04:02;10.00;10.00;10.00
78316;PMS7003;67572;50.930;18.276;2023-08-12T00:07:05;13.67;13.67;11.33
78316;PMS7003;67572;50.930;18.276;2023-08-12T00:10:11;10.00;10.00;10.00
78316;PMS7003;67572;50.930;18.276;2023-08-12T00:13:15;15.00;13.00;13.00
78316;PMS7003;67572;50.930;18.276;2023-08-12T00:16:19;9.67;9.67;9.33
78316;PMS7003;67572;50.930;18.276;2023-08-12T00:19:23;13.00;13.00;13.00
78316;PMS7003;67572;50.930;18.276;2023-08-12T00:22:27;15.00;12.67;12.33
78316;PMS7003;67572;50.930;18.276;2023-08-12T00:25:32;15.00;13.00;12.00
78316;PMS7003;67572;50.930;18.276;2023-08-12T00:28:35;17.67;16.33;15.33
78316;PMS7003;67572;50.930;18.276;2023-08-12T00:31:39;12.00;12.00;12.00
78316;PMS7003;67572;50.930;18.276;2023-08-12T00:34:43;12.33;12.33;12.00
78316;PMS7003;67572;50.930;18.276;2023-08-12T00:37:49;12.00;12.00;12.00
78316;PMS7003;67572;50.930;18.276;2023-08-12T00:40:54;12.00;12.00;10.00
78316;PMS7003;67572;50.930;18.276;2023-08-12T00:43:58;14.33;12.33;12.00
78316;PMS7003;67572;50.930;18.276;2023-08-12T00:47:01;13.00;13.00;13.00
78316;PMS7003;67572;50.930;18.276;2023-08-12T00:50:05;12.00;10.67;10.67
78316;PMS7003;67572;50.930;18.276;2023-08-12T00:53:11;12.33;12.00;12.00
78316;PMS7003;67572;50.930;18.276;2023-08-12T00:56:19;9.00;9.00;9.00
78316;PMS7003;67572;50.930;18.276;2023-08-12T00:59:22;15.00;13.00;12.33
78316;PMS7003;67572;50.930;18.276;2023-08-12T01:02:27;12.00;12.00;12.00
78316;PMS7003;67572;50.930;18.276;2023-08-12T01:05:30;15.00;15.00;13.00
78316;PMS7003;67572;50.930;18.276;2023-08-12T01:08:40;12.67;12.00;10.00
78316;PMS7003;67572;50.930;18.276;2023-08-12T01:11:48;14.00;12.67;12.00
78316;PMS7003;67572;50.930;18.276;2023-08-12T01:14:56;12.00;12.00;10.00
78316;PMS7003;67572;50.930;18.276;2023-08-12T01:18:06;10.00;10.00;9.67
78316;PMS7003;67572;50.930;18.276;2023-08-12T01:21:11;14.67;11.33;10.00
78316;PMS7003;67572;50.930;18.276;2023-08-12T01:24:21;11.00;9.67;9.00
78316;PMS7003;67572;50.930;18.276;2023-08-12T01:27:24;10.00;10.00;10.00
78316;PMS7003;67572;50.930;18.276;2023-08-12T01:30:28;10.00;10.00;9.50
78316;PMS7003;67572;50.930;18.276;2023-08-12T01:33:33;15.33;14.33;13.00
78316;PMS7003;67572;50.930;18.276;2023-08-12T01:36:42;16.67;16.67;15.00
78316;PMS7003;67572;50.930;18.276;2023-08-12T01:39:50;17.33;17.33;15.00
78316;PMS7003;67572;50.930;18.276;2023-08-12T01:42:57;13.00;11.33;11.33
78316;PMS7003;67572;50.930;18.276;2023-08-12T01:46:01;13.00;13.00;12.00
78316;PMS7003;67572;50.930;18.276;2023-08-12T01:49:05;13.00;13.00;12.33
78316;PMS7003;67572;50.930;18.276;2023-08-12T01:52:08;13.00;13.00;12.00
78316;PMS7003;67572;50.930;18.276;2023-08-12T01:55:14;15.00;15.00;15.00
78316;PMS7003;67572;50.930;18.276;2023-08-12T01:58:18;16.00;16.00;15.33
78316;PMS7003;67572;50.930;18.276;2023-08-12T02:01:21;16.00;16.00;13.67
78316;PMS7003;67572;50.930;18.276;2023-08-12T02:04:27;15.67;15.67;15.67
78316;PMS7003;67572;50.930;18.276;2023-08-12T02:07:31;15.33;15.33;14.33
78316;PMS7003;67572;50.930;18.276;2023-08-12T02:10:36;15.67;15.67;14.33
78316;PMS7003;67572;50.930;18.276;2023-08-12T02:13:39;12.33;12.33;12.00
78316;PMS7003;67572;50.930;18.276;2023-08-12T02:16:43;16.00;14.33;13.67
78316;PMS7003;67572;50.930;18.276;2023-08-12T02:19:46;13.67;13.67;12.67
78316;PMS7003;67572;50.930;18.276;2023-08-12T02:22:50;13.00;13.00;12.67
78316;PMS7003;67572;50.930;18.276;2023-08-12T02:25:55;11.00;11.00;10.00
78316;PMS7003;67572;50.930;18.276;2023-08-12T02:29:01;10.00;10.00;10.00
78316;PMS7003;67572;50.930;18.276;2023-08-12T02:32:04;17.33;15.00;13.00
78316;PMS7003;67572;50.930;18.276;2023-08-12T02:35:08;12.67;12.67;12.00
78316;PMS7003;67572;50.930;18.276;2023-08-12T02:38:12;12.67;10.67;10.00
78316;PMS7003;67572;50.930;18.276;2023-08-12T02:41:17;12.33;12.33;11.33
78316;PMS7003;67572;50.930;18.276;2023-08-12T02:44:21;9.00;9.00;9.00
78316;PMS7003;67572;50.930;18.276;2023-08-12T02:47:24;16.00;12.67;11.33
78316;PMS7003;67572;50.930;18.276;2023-08-12T02:50:28;13.67;13.67;13.67
78316;PMS7003;67572;50.930;18.276;2023-08-12T02:53:32;13.00;13.00;12.33
78316;PMS7003;67572;50.930;18.276;2023-08-12T02:56:37;13.67;13.67;12.33
78316;PMS7003;67572;50.930;18.276;2023-08-12T02:59:41;16.00;15.00;13.00
78316;PMS7003;67572;50.930;18.276;2023-08-12T03:02:44;13.00;13.00;12.67
78316;PMS7003;67572;50.930;18.276;2023-08-12T03:05:48;15.00;15.00;13.67
78316;PMS7003;67572;50.930;18.276;2023-08-12T03:08:52;9.33;9.33;9.33
78316;PMS7003;67572;50.930;18.276;2023-08-12T03:11:57;10.67;10.67;10.67
78316;PMS7003;67572;50.930;18.276;2023-08-12T03:15:04;12.00;12.00;10.00
78316;PMS7003;67572;50.930;18.276;2023-08-12T03:18:09;13.67;12.33;12.00
78316;PMS7003;67572;50.930;18.276;2023-08-12T03:21:13;15.33;13.00;13.00
78316;PMS7003;67572;50.930;18.276;2023-08-12T03:24:17;12.00;12.00;11.67
78316;PMS7003;67572;50.930;18.276;2023-08-12T03:27:23;15.33;15.33;15.33
78316;PMS7003;67572;50.930;18.276;2023-08-12T03:30:27;16.00;16.00;15.00
78316;PMS7003;67572;50.930;18.276;2023-08-12T03:33:32;13.00;13.00;13.00
78316;PMS7003;67572;50.930;18.276;2023-08-12T03:36:37;12.67;12.67;12.67
78316;PMS7003;67572;50.930;18.276;2023-08-12T03:39:41;13.33;13.33;11.67
78316;PMS7003;67572;50.930;18.276;2023-08-12T03:42:46;10.67;10.67;9.33
78316;PMS7003;67572;50.930;18.276;2023-08-12T03:45:51;13.67;13.00;12.00
78316;PMS7003;67572;50.930;18.276;2023-08-12T03:48:55;12.00;12.00;10.00
78316;PMS7003;67572;50.930;18.276;2023-08-12T03:51:59;13.67;13.67;13.00
78316;PMS7003;67572;50.930;18.276;2023-08-12T03:55:05;15.00;15.00;12.67
78316;PMS7003;67572;50.930;18.276;2023-08-12T03:58:11;12.00;12.00;11.33
78316;PMS7003;67572;50.930;18.276;2023-08-12T04:01:16;13.67;10.67;10.67
78316;PMS7003;67572;50.930;18.276;2023-08-12T04:04:20;12.00;12.00;10.67
78316;PMS7003;67572;50.930;18.276;2023-08-12T04:07:23;10.67;10.67;10.00
78316;PMS7003;67572;50.930;18.276;2023-08-12T04:10:29;14.33;14.33;13.67
78316;PMS7003;67572;50.930;18.276;2023-08-12T04:13:35;10.67;10.67;10.00
78316;PMS7003;67572;50.930;18.276;2023-08-12T04:16:38;13.00;13.00;13.00
78316;PMS7003;67572;50.930;18.276;2023-08-12T04:19:42;12.00;12.00;12.00
78316;PMS7003;67572;50.930;18.276;2023-08-12T04:22:45;10.00;10.00;9.00
78316;PMS7003;67572;50.930;18.276;2023-08-12T04:25:52;12.00;12.00;10.00
78316;PMS7003;67572;50.930;18.276;2023-08-12T04:29:00;12.00;12.00;10.00
78316;PMS7003;67572;50.930;18.276;2023-08-12T04:32:05;15.33;15.33;13.67
78316;PMS7003;67572;50.930;18.276;2023-08-12T04:35:09;10.00;10.00;9.67
78316;PMS7003;67572;50.930;18.276;2023-08-12T04:38:13;15.00;15.00;13.00
78316;PMS7003;67572;50.930;18.276;2023-08-12T04:41:18;15.00;15.00;12.33
78316;PMS7003;67572;50.930;18.276;2023-08-12T04:44:23;12.33;12.33;12.00
78316;PMS7003;67572;50.930;18.276;2023-08-12T04:47:27;12.33;12.33;12.00
78316;PMS7003;67572;50.930;18.276;2023-08-12T04:50:31;15.33;15.33;13.67
78316;PMS7003;67572;50.930;18.276;2023-08-12T04:53:36;12.00;12.00;11.33
78316;PMS7003;67572;50.930;18.276;2023-08-12T04:56:40;12.67;12.67;12.00
78316;PMS7003;67572;50.930;18.276;2023-08-12T04:59:46;12.00;10.00;9.00
78316;PMS7003;67572;50.930;18.276;2023-08-12T05:02:51;9.00;9.00;9.00
78316;PMS7003;67572;50.930;18.276;2023-08-12T05:05:55;9.33;9.00;8.33
78316;PMS7003;67572;50.930;18.276;2023-08-12T05:09:01;10.00;10.00;9.67
78316;PMS7003;67572;50.930;18.276;2023-08-12T05:12:06;11.33;11.33;11.33
78316;PMS7003;67572;50.930;18.276;2023-08-12T05:15:12;12.33;12.33;12.33
78316;PMS7003;67572;50.930;18.276;2023-08-12T05:18:16;9.67;9.67;9.67
78316;PMS7003;67572;50.930;18.276;2023-08-12T05:21:20;7.33;6.67;6.67
78316;PMS7003;67572;50.930;18.276;2023-08-12T05:24:24;9.33;9.33;9.33
78316;PMS7003;67572;50.930;18.276;2023-08-12T05:27:28;7.00;7.00;6.00
78316;PMS7003;67572;50.930;18.276;2023-08-12T05:30:33;10.00;10.00;10.00
78316;PMS7003;67572;50.930;18.276;2023-08-12T05:33:37;10.67;9.33;9.00
78316;PMS7003;67572;50.930;18.276;2023-08-12T05:36:41;10.00;10.00;10.00
78316;PMS7003;67572;50.930;18.276;2023-08-12T05:39:45;9.33;8.33;7.67
78316;PMS7003;67572;50.930;18.276;2023-08-12T05:42:49;12.33;12.33;12.33
78316;PMS7003;67572;50.930;18.276;2023-08-12T05:45:54;9.67;9.67;9.67
78316;PMS7003;67572;50.930;18.276;2023-08-12T05:48:58;7.00;7.00;7.00
78316;PMS7003;67572;50.930;18.276;2023-08-12T05:52:01;9.33;9.33;9.00
78316;PMS7003;67572;50.930;18.276;2023-08-12T05:55:05;12.67;12.67;12.67
78316;PMS7003;67572;50.930;18.276;2023-08-12T05:58:09;11.67;11.67;11.67
78316;PMS7003;67572;50.930;18.276;2023-08-12T06:01:14;9.67;9.67;9.67
78316;PMS7003;67572;50.930;18.276;2023-08-12T06:04:18;8.33;8.33;8.33
78316;PMS7003;67572;50.930;18.276;2023-08-12T06:07:21;13.67;12.33;10.67
78316;PMS7003;67572;50.930;18.276;2023-08-12T06:10:25;10.00;10.00;10.00
78316;PMS7003;67572;50.930;18.276;2023-08-12T06:13:28;11.00;10.00;9.33
78316;PMS7003;67572;50.930;18.276;2023-08-12T06:16:33;10.00;10.00;10.00
78316;PMS7003;67572;50.930;18.276;2023-08-12T06:19:37;10.00;10.00;7.67
78316;PMS7003;67572;50.930;18.276;2023-08-12T06:22:41;13.00;10.67;10.67
78316;PMS7003;67572;50.930;18.276;2023-08-12T06:25:44;8.00;7.33;7.00
78316;PMS7003;67572;50.930;18.276;2023-08-12T06:31:02;10.33;10.33;10.00
78316;PMS7003;67572;50.930;18.276;2023-08-12T06:34:05;9.67;7.33;7.33
78316;PMS7003;67572;50.930;18.276;2023-08-12T06:37:09;10.33;10.33;10.00
78316;PMS7003;67572;50.930;18.276;2023-08-12T06:40:13;8.67;7.67;7.33
78316;PMS7003;67572;50.930;18.276;2023-08-12T06:43:16;8.33;8.33;8.33
78316;PMS7003;67572;50.930;18.276;2023-08-12T06:46:22;8.00;8.00;8.00
78316;PMS7003;67572;50.930;18.276;2023-08-12T06:49:25;11.00;8.33;8.00
78316;PMS7003;67572;50.930;18.276;2023-08-12T06:52:29;9.00;9.00;9.00
78316;PMS7003;67572;50.930;18.276;2023-08-12T06:55:33;8.75;8.75;8.75
78316;PMS7003;67572;50.930;18.276;2023-08-12T06:58:36;10.50;10.50;9.00
78316;PMS7003;67572;50.930;18.276;2023-08-12T07:01:41;8.67;8.67;8.67
78316;PMS7003;67572;50.930;18.276;2023-08-12T07:04:45;8.50;8.50;8.25
78316;PMS7003;67572;50.930;18.276;2023-08-12T07:07:48;5.25;5.25;5.25
78316;PMS7003;67572;50.930;18.276;2023-08-12T07:10:52;8.00;8.00;8.00
78316;PMS7003;67572;50.930;18.276;2023-08-12T07:13:56;11.00;11.00;11.00
78316;PMS7003;67572;50.930;18.276;2023-08-12T07:17:01;9.00;9.00;8.25
78316;PMS7003;67572;50.930;18.276;2023-08-12T07:20:05;12.00;10.75;9.25
78316;PMS7003;67572;50.930;18.276;2023-08-12T07:23:09;8.50;8.50;8.50
78316;PMS7003;67572;50.930;18.276;2023-08-12T07:26:13;8.00;8.00;8.00
78316;PMS7003;67572;50.930;18.276;2023-08-12T07:29:16;8.25;8.25;8.25
78316;PMS7003;67572;50.930;18.276;2023-08-12T07:32:21;10.00;10.00;9.00
78316;PMS7003;67572;50.930;18.276;2023-08-12T07:35:24;8.75;8.75;8.75
78316;PMS7003;67572;50.930;18.276;2023-08-12T07:38:28;8.00;8.00;8.00
78316;PMS7003;67572;50.930;18.276;2023-08-12T07:41:31;6.00;6.00;6.00
78316;PMS7003;67572;50.930;18.276;2023-08-12T07:44:35;8.00;8.00;7.50
78316;PMS7003;67572;50.930;18.276;2023-08-12T07:47:40;7.20;7.20;7.20
78316;PMS7003;67572;50.930;18.276;2023-08-12T07:50:44;6.00;6.00;6.00
78316;PMS7003;67572;50.930;18.276;2023-08-12T07:53:50;5.00;5.00;4.40
78316;PMS7003;67572;50.930;18.276;2023-08-12T07:56:54;6.00;6.00;6.00
78316;PMS7003;67572;50.930;18.276;2023-08-12T07:59:57;5.20;5.20;5.20
78316;PMS7003;67572;50.930;18.276;2023-08-12T08:03:03;6.40;6.40;6.40
78316;PMS7003;67572;50.930;18.276;2023-08-12T08:06:07;7.40;7.40;6.80
78316;PMS7003;67572;50.930;18.276;2023-08-12T08:09:11;6.20;6.20;6.20
78316;PMS7003;67572;50.930;18.276;2023-08-12T08:12:14;5.40;5.40;5.40
78316;PMS7003;67572;50.930;18.276;2023-08-12T08:15:18;9.40;9.40;8.80
78316;PMS7003;67572;50.930;18.276;2023-08-12T08:18:23;6.40;6.40;6.40
78316;PMS7003;67572;50.930;18.276;2023-08-12T08:21:27;6.00;6.00;6.00
78316;PMS7003;67572;50.930;18.276;2023-08-12T08:24:31;6.00;6.00;6.00
78316;PMS7003;67572;50.930;18.276;2023-08-12T08:27:34;3.80;3.80;3.40
78316;PMS7003;67572;50.930;18.276;2023-08-12T08:30:38;6.60;5.60;5.60
78316;PMS7003;67572;50.930;18.276;2023-08-12T08:33:43;7.40;5.40;5.20
78316;PMS7003;67572;50.930;18.276;2023-08-12T08:36:46;6.80;6.80;6.20
78316;PMS7003;67572;50.930;18.276;2023-08-12T08:39:51;5.80;5.80;5.80
78316;PMS7003;67572;50.930;18.276;2023-08-12T08:42:54;5.00;5.00;5.00
78316;PMS7003;67572;50.930;18.276;2023-08-12T08:46:05;9.00;7.00;7.00
78316;PMS7003;67572;50.930;18.276;2023-08-12T08:49:11;6.40;6.40;6.00
78316;PMS7003;67572;50.930;18.276;2023-08-12T08:52:16;7.00;7.00;7.00
78316;PMS7003;67572;50.930;18.276;2023-08-12T08:55:21;5.00;5.00;5.00
78316;PMS7003;67572;50.930;18.276;2023-08-12T08:58:25;3.80;3.80;3.80
78316;PMS7003;67572;50.930;18.276;2023-08-12T09:01:29;6.00;6.00;6.00
78316;PMS7003;67572;50.930;18.276;2023-08-12T09:04:36;6.00;5.00;5.00
78316;PMS7003;67572;50.930;18.276;2023-08-12T09:07:40;2.80;2.40;2.40
78316;PMS7003;67572;50.930;18.276;2023-08-12T09:10:45;3.80;3.80;3.80
78316;PMS7003;67572;50.930;18.276;2023-08-12T09:13:50;5.60;5.60;5.60
78316;PMS7003;67572;50.930;18.276;2023-08-12T09:16:53;5.40;5.40;5.40
78316;PMS7003;67572;50.930;18.276;2023-08-12T09:20:00;3.80;3.80;3.80
78316;PMS7003;67572;50.930;18.276;2023-08-12T09:23:04;6.60;6.60;6.60
78316;PMS7003;67572;50.930;18.276;2023-08-12T09:26:12;4.60;4.60;4.40
78316;PMS7003;67572;50.930;18.276;2023-08-12T09:29:17;5.80;5.60;5.60
78316;PMS7003;67572;50.930;18.276;2023-08-12T09:32:20;4.20;4.20;3.80
78316;PMS7003;67572;50.930;18.276;2023-08-12T09:35:30;3.60;3.60;3.60
78316;PMS7003;67572;50.930;18.276;2023-08-12T09:38:36;5.00;5.00;5.00
78316;PMS7003;67572;50.930;18.276;2023-08-12T09:41:41;5.00;4.80;4.80
78316;PMS7003;67572;50.930;18.276;2023-08-12T09:44:46;4.80;4.80;4.80
78316;PMS7003;67572;50.930;18.276;2023-08-12T09:47:50;5.60;5.60;5.20
78316;PMS7003;67572;50.930;18.276;2023-08-12T09:50:55;4.20;4.20;4.20
78316;PMS7003;67572;50.930;18.276;2023-08-12T09:53:59;7.00;7.00;7.00
78316;PMS7003;67572;50.930;18.276;2023-08-12T09:57:04;6.60;6.60;6.20
78316;PMS7003;67572;50.930;18.276;2023-08-12T10:00:11;6.20;6.20;6.00
78316;PMS7003;67572;50.930;18.276;2023-08-12T10:03:18;6.40;4.00;4.00
78316;PMS7003;67572;50.930;18.276;2023-08-12T10:06:25;6.00;6.00;6.00
78316;PMS7003;67572;50.930;18.276;2023-08-12T10:09:29;3.80;3.80;3.80
78316;PMS7003;67572;50.930;18.276;2023-08-12T10:12:34;4.40;4.40;4.40
78316;PMS7003;67572;50.930;18.276;2023-08-12T10:15:38;6.00;6.00;6.00
78316;PMS7003;67572;50.930;18.276;2023-08-12T10:18:43;6.20;6.20;6.20
78316;PMS7003;67572;50.930;18.276;2023-08-12T10:21:53;5.60;5.60;5.60
78316;PMS7003;67572;50.930;18.276;2023-08-12T10:25:01;6.00;6.00;6.00
78316;PMS7003;67572;50.930;18.276;2023-08-12T10:28:05;1.40;1.40;1.00
78316;PMS7003;67572;50.930;18.276;2023-08-12T10:31:10;3.00;3.00;3.00
78316;PMS7003;67572;50.930;18.276;2023-08-12T10:36:54;4.00;4.00;4.00
78316;PMS7003;67572;50.930;18.276;2023-08-12T10:40:05;4.00;4.00;4.00
78316;PMS7003;67572;50.930;18.276;2023-08-12T10:43:23;4.00;4.00;4.00
78316;PMS7003;67572;50.930;18.276;2023-08-12T10:46:30;3.00;3.00;3.00
78316;PMS7003;67572;50.930;18.276;2023-08-12T10:49:37;3.00;3.00;3.00
78316;PMS7003;67572;50.930;18.276;2023-08-12T10:52:43;3.80;3.80;3.80
78316;PMS7003;67572;50.930;18.276;2023-08-12T10:55:48;3.60;3.60;3.40
78316;PMS7003;67572;50.930;18.276;2023-08-12T10:58:52;4.20;4.20;3.80
78316;PMS7003;67572;50.930;18.276;2023-08-12T11:02:04;6.00;4.00;4.00
78316;PMS7003;67572;50.930;18.276;2023-08-12T11:05:11;3.60;3.60;3.60
78316;PMS7003;67572;50.930;18.276;2023-08-12T11:08:17;2.40;2.00;2.00
78316;PMS7003;67572;50.930;18.276;2023-08-12T11:11:26;3.00;3.00;3.00
78316;PMS7003;67572;50.930;18.276;2023-08-12T11:14:30;3.60;3.60;3.60
78316;PMS7003;67572;50.930;18.276;2023-08-12T11:17:34;4.00;4.00;4.00
78316;PMS7003;67572;50.930;18.276;2023-08-12T11:20:39;4.00;4.00;4.00
78316;PMS7003;67572;50.930;18.276;2023-08-12T11:23:44;4.00;4.00;4.00
78316;PMS7003;67572;50.930;18.276;2023-08-12T11:26:48;5.40;5.40;5.40
78316;PMS7003;67572;50.930;18.276;2023-08-12T11:29:54;4.40;4.40;4.40
78316;PMS7003;67572;50.930;18.276;2023-08-12T11:32:58;3.40;3.40;3.40
78316;PMS7003;67572;50.930;18.276;2023-08-12T11:36:02;5.00;5.00;5.00
78316;PMS7003;67572;50.930;18.276;2023-08-12T11:39:07;2.80;2.80;2.80
78316;PMS7003;67572;50.930;18.276;2023-08-12T11:42:11;3.00;3.00;3.00
78316;PMS7003;67572;50.930;18.276;2023-08-12T11:45:18;3.40;3.40;2.80
78316;PMS7003;67572;50.930;18.276;2023-08-12T11:48:23;4.00;4.00;4.00
78316;PMS7003;67572;50.930;18.276;2023-08-12T11:51:28;4.60;4.60;4.60
78316;PMS7003;67572;50.930;18.276;2023-08-12T11:54:33;4.40;4.40;4.40
78316;PMS7003;67572;50.930;18.276;2023-08-12T11:57:36;5.40;5.40;5.40
78316;PMS7003;67572;50.930;18.276;2023-08-12T12:00:42;4.00;4.00;4.00
78316;PMS7003;67572;50.930;18.276;2023-08-12T12:03:46;4.80;4.80;4.80
78316;PMS7003;67572;50.930;18.276;2023-08-12T12:06:54;4.00;4.00;4.00
78316;PMS7003;67572;50.930;18.276;2023-08-12T12:09:59;4.20;4.20;4.20
78316;PMS7003;67572;50.930;18.276;2023-08-12T12:13:03;4.00;4.00;4.00
78316;PMS7003;67572;50.930;18.276;2023-08-12T12:16:09;3.00;3.00;3.00
78316;PMS7003;67572;50.930;18.276;2023-08-12T12:19:15;3.00;3.00;3.00
78316;PMS7003;67572;50.930;18.276;2023-08-12T12:22:19;5.20;5.20;4.80
78316;PMS7003;67572;50.930;18.276;2023-08-12T12:25:25;8.80;8.80;8.00
78316;PMS7003;67572;50.930;18.276;2023-08-12T12:28:28;4.40;4.40;4.40
78316;PMS7003;67572;50.930;18.276;2023-08-12T12:31:32;4.00;4.00;3.80
78316;PMS7003;67572;50.930;18.276;2023-08-12T12:34:37;7.60;5.60;5.60
78316;PMS7003;67572;50.930;18.276;2023-08-12T12:37:41;3.20;3.20;3.20
78316;PMS7003;67572;50.930;18.276;2023-08-12T12:40:46;4.00;4.00;4.00
78316;PMS7003;67572;50.930;18.276;2023-08-12T12:43:49;4.00;4.00;4.00
78316;PMS7003;67572;50.930;18.276;2023-08-12T12:46:53;4.00;4.00;3.60
78316;PMS7003;67572;50.930;18.276;2023-08-12T12:49:56;4.00;4.00;4.00
78316;PMS7003;67572;50.930;18.276;2023-08-12T12:53:00;4.00;4.00;4.00
78316;PMS7003;67572;50.930;18.276;2023-08-12T12:56:05;3.00;2.60;2.60
78316;PMS7003;67572;50.930;18.276;2023-08-12T12:59:09;5.00;5.00;4.80
78316;PMS7003;67572;50.930;18.276;2023-08-12T13:02:13;2.00;2.00;2.00
78316;PMS7003;67572;50.930;18.276;2023-08-12T13:05:17;2.80;2.80;2.80
78316;PMS7003;67572;50.930;18.276;2023-08-12T13:08:20;3.80;3.80;3.80
78316;PMS7003;67572;50.930;18.276;2023-08-12T13:11:25;5.00;3.60;3.60
78316;PMS7003;67572;50.930;18.276;2023-08-12T13:14:29;3.80;3.80;3.80
78316;PMS7003;67572;50.930;18.276;2023-08-12T13:17:33;2.00;2.00;2.00
78316;PMS7003;67572;50.930;18.276;2023-08-12T13:20:36;4.00;4.00;4.00
78316;PMS7003;67572;50.930;18.276;2023-08-12T13:23:40;5.00;5.00;5.00
78316;PMS7003;67572;50.930;18.276;2023-08-12T13:26:45;5.00;5.00;5.00
78316;PMS7003;67572;50.930;18.276;2023-08-12T13:29:48;3.60;3.60;3.60
78316;PMS7003;67572;50.930;18.276;2023-08-12T13:32:52;3.00;3.00;3.00
78316;PMS7003;67572;50.930;18.276;2023-08-12T13:35:55;4.00;4.00;4.00
78316;PMS7003;67572;50.930;18.276;2023-08-12T13:38:59;4.00;4.00;4.00
78316;PMS7003;67572;50.930;18.276;2023-08-12T13:42:04;5.00;4.00;4.00
78316;PMS7003;67572;50.930;18.276;2023-08-12T13:45:08;3.60;3.60;3.60
78316;PMS7003;67572;50.930;18.276;2023-08-12T13:48:13;3.00;3.00;3.00
78316;PMS7003;67572;50.930;18.276;2023-08-12T13:51:17;3.00;3.00;3.00
78316;PMS7003;67572;50.930;18.276;2023-08-12T13:54:20;2.40;2.40;2.40
78316;PMS7003;67572;50.930;18.276;2023-08-12T13:57:25;3.00;3.00;3.00
78316;PMS7003;67572;50.930;18.276;2023-08-12T14:00:28;4.00;4.00;4.00
78316;PMS7003;67572;50.930;18.276;2023-08-12T14:03:32;3.00;3.00;3.00
78316;PMS7003;67572;50.930;18.276;2023-08-12T14:06:37;2.20;2.20;2.20
78316;PMS7003;67572;50.930;18.276;2023-08-12T14:09:42;2.80;2.80;2.80
78316;PMS7003;67572;50.930;18.276;2023-08-12T14:12:46;3.60;3.60;3.40
78316;PMS7003;67572;50.930;18.276;2023-08-12T14:15:53;4.00;4.00;4.00
78316;PMS7003;67572;50.930;18.276;2023-08-12T14:18:56;8.00;8.00;8.00
78316;PMS7003;67572;50.930;18.276;2023-08-12T14:22:00;3.40;3.40;3.20
78316;PMS7003;67572;50.930;18.276;2023-08-12T14:25:04;4.60;4.60;4.60
78316;PMS7003;67572;50.930;18.276;2023-08-12T14:28:10;4.80;4.80;4.60
78316;PMS7003;67572;50.930;18.276;2023-08-12T14:31:13;5.20;4.20;4.00
78316;PMS7003;67572;50.930;18.276;2023-08-12T14:34:18;2.40;2.40;2.40
78316;PMS7003;67572;50.930;18.276;2023-08-12T14:37:21;5.00;5.00;5.00
78316;PMS7003;67572;50.930;18.276;2023-08-12T14:40:25;4.00;4.00;4.00
78316;PMS7003;67572;50.930;18.276;2023-08-12T14:43:30;4.20;4.20;4.20
78316;PMS7003;67572;50.930;18.276;2023-08-12T14:46:34;4.60;4.20;3.00
78316;PMS7003;67572;50.930;18.276;2023-08-12T14:49:37;3.00;3.00;3.00
78316;PMS7003;67572;50.930;18.276;2023-08-12T14:52:41;4.80;4.80;4.80
78316;PMS7003;67572;50.930;18.276;2023-08-12T14:55:45;5.60;3.60;3.60
78316;PMS7003;67572;50.930;18.276;2023-08-12T14:58:51;3.80;3.80;3.80
78316;PMS7003;67572;50.930;18.276;2023-08-12T15:01:54;5.00;5.00;4.60
78316;PMS7003;67572;50.930;18.276;2023-08-12T15:04:59;5.40;5.40;5.20
78316;PMS7003;67572;50.930;18.276;2023-08-12T15:08:05;4.00;4.00;3.00
78316;PMS7003;67572;50.930;18.276;2023-08-12T15:11:08;4.00;4.00;3.60
78316;PMS7003;67572;50.930;18.276;2023-08-12T15:14:13;3.20;3.20;3.00
78316;PMS7003;67572;50.930;18.276;2023-08-12T15:17:17;4.20;4.20;4.20
78316;PMS7003;67572;50.930;18.276;2023-08-12T15:20:20;4.20;3.00;3.00
78316;PMS7003;67572;50.930;18.276;2023-08-12T15:23:24;3.40;3.40;3.40
78316;PMS7003;67572;50.930;18.276;2023-08-12T15:26:27;4.80;3.80;3.80
78316;PMS7003;67572;50.930;18.276;2023-08-12T15:29:35;5.00;4.00;4.00
78316;PMS7003;67572;50.930;18.276;2023-08-12T15:32:38;2.80;2.80;2.80
78316;PMS7003;67572;50.930;18.276;2023-08-12T15:35:43;3.00;3.00;3.00
78316;PMS7003;67572;50.930;18.276;2023-08-12T15:38:47;2.00;2.00;2.00
78316;PMS7003;67572;50.930;18.276;2023-08-12T15:41:51;3.20;3.20;3.20
78316;PMS7003;67572;50.930;18.276;2023-08-12T15:44:56;2.80;2.80;2.80
78316;PMS7003;67572;50.930;18.276;2023-08-12T15:48:00;4.00;3.20;3.20
78316;PMS7003;67572;50.930;18.276;2023-08-12T15:51:09;3.00;3.00;3.00
78316;PMS7003;67572;50.930;18.276;2023-08-12T15:54:16;3.80;3.80;3.20
78316;PMS7003;67572;50.930;18.276;2023-08-12T15:57:20;2.60;2.20;2.20
78316;PMS7003;67572;50.930;18.276;2023-08-12T16:00:25;2.80;2.80;2.80
78316;PMS7003;67572;50.930;18.276;2023-08-12T16:03:29;2.00;2.00;2.00
78316;PMS7003;67572;50.930;18.276;2023-08-12T16:06:32;3.00;3.00;3.00
78316;PMS7003;67572;50.930;18.276;2023-08-12T16:09:36;15.20;15.20;14.20
78316;PMS7003;67572;50.930;18.276;2023-08-12T16:12:39;9.00;9.00;9.00
78316;PMS7003;67572;50.930;18.276;2023-08-12T16:15:44;5.80;5.80;5.80
78316;PMS7003;67572;50.930;18.276;2023-08-12T16:18:48;3.00;3.00;3.00
78316;PMS7003;67572;50.930;18.276;2023-08-12T16:21:51;3.00;3.00;3.00
78316;PMS7003;67572;50.930;18.276;2023-08-12T16:24:55;3.00;3.00;3.00
78316;PMS7003;67572;50.930;18.276;2023-08-12T16:27:58;2.20;2.20;2.20
78316;PMS7003;67572;50.930;18.276;2023-08-12T16:31:03;2.40;2.40;2.40
78316;PMS7003;67572;50.930;18.276;2023-08-12T16:34:07;2.40;2.40;2.40
78316;PMS7003;67572;50.930;18.276;2023-08-12T16:37:10;3.00;3.00;3.00
78316;PMS7003;67572;50.930;18.276;2023-08-12T16:40:22;3.80;3.80;3.80
78316;PMS7003;67572;50.930;18.276;2023-08-12T16:43:29;2.60;2.60;2.60
78316;PMS7003;67572;50.930;18.276;2023-08-12T16:46:33;5.80;5.80;5.20
78316;PMS7003;67572;50.930;18.276;2023-08-12T16:49:37;4.00;4.00;3.60
78316;PMS7003;67572;50.930;18.276;2023-08-12T16:52:40;3.00;3.00;3.00
78316;PMS7003;67572;50.930;18.276;2023-08-12T16:55:45;2.20;2.20;2.20
78316;PMS7003;67572;50.930;18.276;2023-08-12T16:58:49;5.00;5.00;5.00
78316;PMS7003;67572;50.930;18.276;2023-08-12T17:01:54;2.00;2.00;2.00
78316;PMS7003;67572;50.930;18.276;2023-08-12T17:04:58;3.00;3.00;3.00
78316;PMS7003;67572;50.930;18.276;2023-08-12T17:08:02;3.60;3.60;3.60
78316;PMS7003;67572;50.930;18.276;2023-08-12T17:11:06;3.40;3.40;3.40
78316;PMS7003;67572;50.930;18.276;2023-08-12T17:14:09;3.00;3.00;2.80
78316;PMS7003;67572;50.930;18.276;2023-08-12T17:17:14;3.80;3.80;3.00
78316;PMS7003;67572;50.930;18.276;2023-08-12T17:20:18;3.00;3.00;3.00
78316;PMS7003;67572;50.930;18.276;2023-08-12T17:23:22;2.60;2.60;2.60
78316;PMS7003;67572;50.930;18.276;2023-08-12T17:26:25;4.00;4.00;4.00
78316;PMS7003;67572;50.930;18.276;2023-08-12T17:29:29;3.80;3.80;3.80
78316;PMS7003;67572;50.930;18.276;2023-08-12T17:32:34;4.00;4.00;3.60
78316;PMS7003;67572;50.930;18.276;2023-08-12T17:35:38;4.00;4.00;4.00